Terminal Aerodrome Forecast
Issued by NWS

Home | Current Version | Previous Version | Text Only | Print | Product List | Glossary On
Versions: 1 2 3 4 5 6 7 8 9 10 11 12 13 14 15 16
707
FTUS44 KLUB 272328
TAFCDS
TAF
KCDS 272328Z 2800/2824 05011KT P6SM VCSH OVC100
     FM280800 33010KT P6SM BKN250
     FM282100 14011KT P6SM FEW100 SCT250=

USA.gov is the U.S. government's official web portal to all federal, state and local government web resources and services.